Terminal Aerodrome Forecast
Issued by NWS

Home | Current Version | Previous Version | Text Only | Print | Product List | Glossary On
Versions: 1 2 3 4 5 6 7 8 9 10 11 12 13 14 15 16 17 18
106
FTUS43 KABR 310520
TAFATY
TAF
KATY 310520Z 3106/0106 15008KT P6SM SCT250
     FM310900 16008KT P6SM BKN090
     FM311100 16009KT P6SM VCTS BKN080CB
     FM311300 16010KT P6SM BKN100
     FM311500 16013G21KT P6SM SCT150=

USA.gov is the U.S. government's official web portal to all federal, state and local government web resources and services.